Pollock, Mississippi
Current Conditions -  °F | °C
As of 12:53 AM on Monday 22 Dec 2014 (Local Time) from KGLH Reporting Station
Haze Haze  
Wind Chill: 44°   Ceiling: 300
Heat Index: 49°   Visibility: 2.5mi
Dew Point: 48°   Wind: 12mph
Humidity: 97%   Direction: 160°SSE
Pressure: 29.89"   Gusts: NA
Location:  33.4825°N, 90.6856°W
Report Text: KGLH 220653Z AUTO 16010KT 2 1/2SM BR OVC003 09/09 A2989 RMK AO2 SLP130 T00940089
Loading
Personal Weather Stations






























Interactive Weather Map New forecast layout! Learn more

10-Day Weather Forecast

Advertisements
Track Severe Weather on mobile